Flight Track Log - Related Links

Times and Time Zones

All times are in EDT time to prevent confusion due to time zone crossing. See the CSZ9594 flight status page for this flight to view local times or setup timezone preferences in your user account.


Time Position Orientation Groundspeed Altitude Reporting Facility
EDT Latitude Longitude Course Direction KTS MPH feet Rate Location/Type
Thu 07:38:00 PM 22.6472 112.9922 271° West  Level Estimated
Thu 07:39:00 PM 22.6479 112.8896 270° West  Level Estimated
Thu 07:40:00 PM 22.6485 112.7871 270° West  Level Estimated
Thu 07:41:00 PM 22.6490 112.6845 270° West  Level Estimated
Thu 07:42:00 PM 22.6495 112.5820 270° West  Level Estimated
Thu 07:43:00 PM 22.6499 112.4795 270° West  Level Estimated
Thu 07:44:00 PM 22.6502 112.3769 270° West  Level Estimated
Thu 07:45:00 PM 22.6505 112.2744 270° West  Level Estimated
Thu 07:46:00 PM 22.6507 112.1719 270° West  Level Estimated
Thu 07:47:00 PM 22.6509 112.0693 270° West  Level Estimated
Thu 07:48:00 PM 22.6510 111.9668 270° West  Level Estimated
Thu 07:49:00 PM 22.6510 111.8642 270° West  Level Estimated
Thu 07:50:00 PM 22.6509 111.7617 270° West  Level Estimated
Thu 07:51:00 PM 22.6508 111.6591 270° West  Level Estimated
Thu 07:52:00 PM 22.6507 111.5566 270° West  Level Estimated
Thu 07:53:00 PM 22.6504 111.4541 270° West  Level Estimated
Thu 07:54:00 PM 22.6501 111.3515 270° West  Level Estimated
Thu 07:55:00 PM 22.6497 111.2490 270° West  Level Estimated
Thu 07:56:00 PM 22.6493 111.1464 270° West  Level Estimated
Thu 07:57:00 PM 22.6488 111.0439 270° West  Level Estimated
Thu 07:58:00 PM 22.6482 110.9414 270° West  Level Estimated
Thu 07:59:00 PM 22.6476 110.8388 270° West  Level Estimated
Thu 08:00:00 PM 22.6469 110.7363 270° West  Level Estimated
Thu 08:01:00 PM 22.6461 110.6338 270° West  Level Estimated
Thu 08:02:00 PM 22.6453 110.5312 270° West  Level Estimated
Thu 08:03:00 PM 22.6444 110.4287 269° West  Level Estimated
Thu 08:04:00 PM 22.6435 110.3262 269° West  Level Estimated
Thu 08:05:00 PM 22.6424 110.2236 269° West  Level Estimated
Thu 08:06:00 PM 22.6413 110.1211 269° West  Level Estimated
Thu 08:07:00 PM 22.6402 110.0186 269° West  Level Estimated
Thu 08:08:00 PM 22.6390 109.9161 269° West  Level Estimated
Thu 08:09:00 PM 22.6377 109.8135 269° West  Level Estimated
Thu 08:10:00 PM 22.6364 109.7110 269° West  Level Estimated
Thu 08:11:00 PM 22.6349 109.6085 269° West  Level Estimated
Thu 08:12:00 PM 22.6335 109.5060 269° West  Level Estimated
Thu 08:13:00 PM 22.6319 109.4035 269° West  Level Estimated
Thu 08:14:00 PM 22.6303 109.3010 269° West  Level Estimated
Thu 08:15:00 PM 22.6286 109.1984 269° West  Level Estimated
Thu 08:16:00 PM 22.6269 109.0959 269° West  Level Estimated
Thu 08:17:00 PM 22.6251 108.9934 269° West  Level Estimated
Thu 08:18:00 PM 22.6232 108.8909 269° West  Level Estimated
Thu 08:19:00 PM 22.6213 108.7884 269° West  Level Estimated
Thu 08:20:00 PM 22.6193 108.6859 269° West  Level Estimated
Thu 08:21:00 PM 22.6172 108.5835 269° West  Level Estimated
Thu 08:22:00 PM 22.6151 108.4810 269° West  Level Estimated
Thu 08:23:00 PM 22.6129 108.3785 269° West  Level Estimated
Thu 08:24:00 PM 22.6106 108.2760 269° West  Level Estimated
Thu 08:25:00 PM 22.6083 108.1735 269° West  Level Estimated
Thu 08:26:00 PM 22.6083 108.1724 269° West  Level Estimated
Thu 08:27:00 PM 22.6083 108.1724 148° Southeast  Level Estimated
Thu 08:28:00 PM 22.6083 108.1724 148° Southeast  Level Estimated
Thu 08:29:00 PM 22.6083 108.1724 148° Southeast  Level Estimated
Thu 08:30:00 PM 22.6083 108.1724 148° Southeast  Level Estimated
Thu 08:31:00 PM 22.6083 108.1724 148° Southeast  Level Estimated
Thu 08:32:00 PM 22.6083 108.1724 148° Southeast  Level Estimated
Thu 08:33:00 PM 22.6083 108.1724 148° Southeast  Level Estimated
Thu 08:34:00 PM 22.6083 108.1724 148° Southeast  Level Estimated
Thu 08:35:00 PM 22.6083 108.1724 148° Southeast  Level Estimated
Thu 08:36:00 PM 22.6083 108.1724 148° Southeast  Level Estimated
Thu 08:37:00 PM 22.6083 108.1724 148° Southeast  Level Estimated
Thu 08:38:00 PM 22.6083 108.1724 148° Southeast  Level Estimated
Thu 08:39:00 PM 22.6083 108.1724 148° Southeast  Level Estimated
Thu 08:40:00 PM 22.6083 108.1724 148° Southeast  Level Estimated

Login

Don't have an account? Register now (free) for customized features, flight alerts, and more!